createdAt,value
2022-10-03T00:01:37.713Z,91.19313453154321
2022-10-03T00:04:33.447Z,91.63036953252801
2022-10-03T00:07:36.264Z,92.24512589870668
2022-10-03T00:11:26.994Z,91.9843414802169
2022-10-03T00:14:23.588Z,92.37503012251675
2022-10-03T00:17:24.164Z,92.2522099345921
2022-10-03T00:21:27.163Z,92.20980966221114
2022-10-03T00:24:30.841Z,91.90358895905429
2022-10-03T00:27:30.437Z,91.75257664583064
2022-10-03T00:31:23.811Z,92.18280536875127
2022-10-03T00:34:32.493Z,92.64334340574636
2022-10-03T00:37:26.383Z,93.58551796298796
2022-10-03T00:41:45.190Z,94.22018706629389
2022-10-03T00:44:40.798Z,94.30007559875398
2022-10-03T00:47:36.316Z,94.59851512027345
2022-10-03T00:51:27.841Z,94.39917805561548
2022-10-03T00:54:32.119Z,95.06125798237315
2022-10-03T00:57:48.796Z,94.84909358694614
2022-10-03T01:01:39.146Z,93.63336171017544
2022-10-03T01:04:45.185Z,93.50151663789272
2022-10-03T01:07:32.563Z,93.19679399654954
2022-10-03T01:11:29.326Z,93.02635453847897
2022-10-03T01:14:31.560Z,93.17378194766594
2022-10-03T01:17:37.790Z,93.24991726268182
2022-10-03T01:21:32.297Z,93.60401461438255
2022-10-03T01:24:42.663Z,94.42111110407947
2022-10-03T01:27:24.574Z,94.96355121235771
2022-10-03T01:31:26.358Z,95.22164993867082
2022-10-03T01:34:30.830Z,95.04590526777974
2022-10-03T01:37:29.251Z,94.8409128993557
2022-10-03T01:41:29.924Z,94.59240076128674
2022-10-03T01:44:21.879Z,94.77964801040164
2022-10-03T01:47:24.186Z,94.26590995053118
2022-10-03T01:51:26.494Z,94.9309912435147
2022-10-03T01:54:25.574Z,95.49501842526493
2022-10-03T01:57:25.886Z,95.99312642793919
2022-10-03T02:01:25.530Z,96.21881491396933
2022-10-03T02:04:35.494Z,97.4469065766873
2022-10-03T02:07:29.149Z,97.96038589295489
2022-10-03T02:11:30.316Z,97.62247868135516
2022-10-03T02:14:27.399Z,97.48813033096089
2022-10-03T02:17:28.367Z,97.9990930760662
2022-10-03T02:21:20.791Z,97.60412733851861
2022-10-03T02:24:31.587Z,97.34592971427304
2022-10-03T02:27:37.205Z,97.35175847595612
2022-10-03T02:31:44.570Z,97.31282623100468
2022-10-03T02:51:58.689Z,97.34498617406221
2022-10-03T03:11:34.502Z,98.0429745689556
2022-10-03T03:14:50.703Z,98.16713380950202
2022-10-03T03:17:27.669Z,98.04901106580328
2022-10-03T03:21:26.565Z,98.98068312226475
2022-10-03T03:24:35.177Z,99.2800568132855
2022-10-03T03:27:31.122Z,99.51090500006843
2022-10-03T03:31:23.904Z,100
2022-10-03T03:34:28.228Z,100
2022-10-03T03:37:25.782Z,100
2022-10-03T03:41:46.529Z,100
2022-10-03T03:45:32.793Z,99.87026361833769
2022-10-03T03:47:34.997Z,99.8344135947501
2022-10-03T03:51:27.803Z,99.06089265183276
2022-10-03T03:54:36.976Z,98.43097456152172
2022-10-03T03:57:34.435Z,97.82760631289261
2022-10-03T04:01:44.673Z,98.63380998957055
2022-10-03T04:04:36.048Z,99.15268339339094
2022-10-03T04:07:32.031Z,99.40821505136263
2022-10-03T04:11:26.826Z,99.9891546122626
2022-10-03T04:14:34.452Z,99.94426586443109
2022-10-03T04:21:39.014Z,99.98337833727497
2022-10-03T04:24:35.867Z,100
2022-10-03T04:27:32.264Z,100
2022-10-03T04:31:33.667Z,100
2022-10-03T04:34:33.654Z,100
2022-10-03T04:37:23.917Z,100
2022-10-03T04:41:25.967Z,100
2022-10-03T04:44:38.945Z,100
2022-10-03T04:47:25.235Z,100
2022-10-03T04:51:23.099Z,100
2022-10-03T04:54:27.443Z,100
2022-10-03T04:57:27.990Z,99.84212851581523
2022-10-03T05:01:22.217Z,99.50363392875278
2022-10-03T05:04:29.610Z,99.85649443192557
2022-10-03T05:07:25.105Z,100
2022-10-03T05:11:35.488Z,100
2022-10-03T05:14:25.070Z,100
2022-10-03T05:17:27.605Z,100
2022-10-03T05:21:28.611Z,100
2022-10-03T05:24:30.732Z,100
2022-10-03T05:27:32.687Z,100
2022-10-03T05:31:29.222Z,100
2022-10-03T05:34:31.562Z,100
2022-10-03T05:37:34.179Z,100
2022-10-03T05:41:26.248Z,100
2022-10-03T05:44:21.009Z,100
2022-10-03T05:47:51.597Z,100
2022-10-03T05:51:43.446Z,100
2022-10-03T05:55:22.819Z,100
2022-10-03T05:57:47.981Z,100
2022-10-03T06:01:54.296Z,100
2022-10-03T06:04:39.572Z,100
2022-10-03T06:07:24.670Z,100
2022-10-03T06:12:29.999Z,100
2022-10-03T06:14:31.385Z,100
2022-10-03T06:19:25.948Z,100
2022-10-03T06:21:34.490Z,100
2022-10-03T06:42:26.099Z,100
2022-10-03T06:44:46.361Z,100
2022-10-03T06:47:28.660Z,100
2022-10-03T07:02:10.362Z,100
2022-10-03T07:04:40.845Z,100
2022-10-03T07:08:39.656Z,100
2022-10-03T07:11:34.583Z,100
2022-10-03T07:31:37.655Z,98.4143982187287
2022-10-03T07:35:03.235Z,98.67222267732457
2022-10-03T07:41:29.428Z,98.81700566626034
2022-10-03T07:45:09.550Z,96.83263768100073
2022-10-03T07:48:22.246Z,97.03854190004668
2022-10-03T07:51:27.605Z,97.50554792773953
2022-10-03T07:55:45.824Z,97.3938245774932
2022-10-03T07:57:40.762Z,97.49192276583437
2022-10-03T08:01:33.783Z,96.98039313295263
2022-10-03T08:21:21.320Z,92.9546835192166
2022-10-03T08:24:31.209Z,92.44436613874323
2022-10-03T08:27:31.447Z,92.20688637107627
2022-10-03T08:31:35.290Z,90.76838812671812
2022-10-03T08:34:49.555Z,90.66557275031646
2022-10-03T08:42:20.747Z,88.36910100494606
2022-10-03T08:46:13.604Z,89.17862500355012
2022-10-03T08:48:00.244Z,90.2160816209156
2022-10-03T09:01:37.824Z,86.72686285556532
2022-10-03T09:04:54.297Z,86.39712474970007
2022-10-03T09:07:41.353Z,83.45318559818003
2022-10-03T09:11:55.368Z,80.68363352546763
2022-10-03T09:31:49.784Z,85.34841960769616
2022-10-03T09:34:41.492Z,85.46437612370063
2022-10-03T09:38:07.052Z,83.08963321187836
2022-10-03T09:42:09.056Z,80.9973211028125
2022-10-03T09:44:35.429Z,80.49619365713446
2022-10-03T09:48:15.949Z,80.60189180217289
2022-10-03T09:51:34.632Z,78.5079924771459
2022-10-03T09:55:35.095Z,76.81348902601377
2022-10-03T09:57:51.954Z,78.20937633516989
2022-10-03T10:01:28.823Z,74.93463723291387
2022-10-03T10:05:19.603Z,75.55005541466953
2022-10-03T10:08:02.388Z,74.32349364190787
2022-10-03T10:11:25.828Z,71.72933457979975
2022-10-03T10:14:30.070Z,70.72511070345712
2022-10-03T10:17:46.684Z,71.39656691632634
2022-10-03T10:22:04.230Z,71.08147505073646
2022-10-03T10:32:34.412Z,67.65256843700593
2022-10-03T10:35:15.638Z,67.89628507213943
2022-10-03T10:37:50.620Z,67.59233271196477
2022-10-03T10:51:46.299Z,62.82361712896558
2022-10-03T11:01:54.379Z,59.6148979728695
2022-10-03T11:05:29.535Z,58.43900928233507
2022-10-03T11:12:25.963Z,56.33808285168206
2022-10-03T11:32:14.901Z,53.52827965955185
2022-10-03T11:36:58.216Z,52.324154351725205
2022-10-03T11:37:31.377Z,53.771870536326844
2022-10-03T11:41:28.819Z,53.42313316334766
2022-10-03T11:44:21.538Z,55.118485202069124
2022-10-03T11:47:34.823Z,52.3371254003782
2022-10-03T11:51:29.137Z,52.152503548154655
2022-10-03T11:54:31.487Z,53.319181809231445
2022-10-03T11:57:27.022Z,54.093014532267716
2022-10-03T12:01:34.199Z,50.135476843450576
2022-10-03T12:04:25.237Z,49.82307852713889
2022-10-03T12:11:23.030Z,50.48085798121388
2022-10-03T12:14:26.944Z,49.915798481160294
2022-10-03T12:17:30.594Z,49.85968109638487
2022-10-03T12:21:22.282Z,49.8452353971539
2022-10-03T12:24:25.259Z,51.297528988973326
2022-10-03T12:27:26.595Z,51.17072467039901
2022-10-03T12:31:21.741Z,47.92162123361449
2022-10-03T12:34:33.733Z,47.876556551365375
2022-10-03T12:37:53.545Z,47.08010040223408
2022-10-03T12:41:33.940Z,45.804000762814674
2022-10-03T12:44:34.592Z,46.119496334184596
2022-10-03T12:51:31.347Z,47.16317565161133
2022-10-03T12:54:33.581Z,46.70063215971457
2022-10-03T12:57:52.308Z,48.1555131149208
2022-10-03T13:01:27.404Z,48.13844063609045
2022-10-03T13:04:28.782Z,45.96938069352605
2022-10-03T13:07:26.579Z,46.620384001739914
2022-10-03T13:11:29.681Z,46.07621269434693
2022-10-03T13:14:43.785Z,45.319538364466645
2022-10-03T13:17:27.266Z,44.727918875782805
2022-10-03T13:21:44.481Z,46.01809098748613
2022-10-03T13:24:31.195Z,45.26767461453745
2022-10-03T13:27:33.232Z,45.77224719820908
2022-10-03T13:31:29.357Z,44.92194834529623
2022-10-03T13:34:20.036Z,46.31266079277811
2022-10-03T13:37:27.325Z,47.28695656462534
2022-10-03T13:41:25.854Z,46.46049781447471
2022-10-03T13:44:19.567Z,45.8733263831695
2022-10-03T13:47:26.934Z,45.949119121180225
2022-10-03T13:51:34.105Z,45.88012034292154
2022-10-03T13:54:43.904Z,46.1270606063492
2022-10-03T13:57:26.463Z,43.9257166712468
2022-10-03T14:01:37.109Z,44.676983724638276
2022-10-03T14:04:49.034Z,43.72032015024819
2022-10-03T14:07:34.004Z,45.87987658443649
2022-10-03T14:11:24.313Z,46.33162952282678
2022-10-03T14:14:33.706Z,46.47258232228697
2022-10-03T14:17:25.332Z,44.224497479825395
2022-10-03T14:21:43.172Z,45.02893726699428
2022-10-03T14:24:37.035Z,44.79415755410184
2022-10-03T14:27:35.609Z,43.77842297050659
2022-10-03T14:31:23.384Z,43.56655193250716
2022-10-03T14:34:32.657Z,44.97417200516577
2022-10-03T14:37:32.441Z,46.74415097028151
2022-10-03T14:41:19.834Z,44.93904697712497
2022-10-03T14:44:22.011Z,45.83572473235176
2022-10-03T14:47:18.152Z,43.923896922815054
2022-10-03T14:51:21.543Z,44.88490300127253
2022-10-03T14:54:20.932Z,45.072446945667835
2022-10-03T14:57:29.463Z,46.65977515208851
2022-10-03T15:01:23.439Z,45.704877752218444
2022-10-03T15:04:28.047Z,45.46386499091832
2022-10-03T15:07:35.817Z,44.04550064805363
2022-10-03T15:11:21.861Z,44.144570433430644
2022-10-03T15:14:18.912Z,46.317304410957625
2022-10-03T15:17:20.833Z,46.516119255262275
2022-10-03T15:21:18.138Z,45.89472754224939
2022-10-03T15:24:25.253Z,46.39759442044321
2022-10-03T15:27:22.892Z,45.48348702627218
2022-10-03T15:31:31.615Z,46.523270396860994
2022-10-03T15:34:22.850Z,46.323483801640414
2022-10-03T15:37:23.088Z,46.62021716390104
2022-10-03T15:41:21.403Z,45.5778861766472
2022-10-03T15:44:22.151Z,45.60103926053691
2022-10-03T15:47:21.322Z,45.565389619650155
2022-10-03T15:51:19.380Z,46.74947586938527
2022-10-03T15:54:21.655Z,46.42104124792044
2022-10-03T15:57:23.561Z,46.4717574480671
2022-10-03T16:01:21.782Z,45.95653403577977
2022-10-03T16:04:22.541Z,47.28652293808028
2022-10-03T16:07:27.861Z,47.17354178926831
2022-10-03T16:11:20.921Z,47.57470918922485
2022-10-03T16:14:23.014Z,48.66890064028761
2022-10-03T16:17:24.133Z,49.27272231022948
2022-10-03T16:21:55.884Z,49.881036315853414
2022-10-03T16:24:26.402Z,50.61801106521753
2022-10-03T16:27:20.324Z,50.29650182587563
2022-10-03T16:31:24.549Z,50.6934635224165
2022-10-03T16:34:19.348Z,51.58604913806554
2022-10-03T16:37:19.801Z,51.8272503029727
2022-10-03T16:41:20.905Z,53.18256168943727
2022-10-03T16:44:22.193Z,53.457954968028176
2022-10-03T16:47:17.728Z,53.66144549379863
2022-10-03T16:51:20.161Z,54.31235148568485
2022-10-03T16:54:18.972Z,54.39676112315952
2022-10-03T16:57:24.417Z,54.908596476896655
2022-10-03T17:01:28.350Z,55.587549001015745
2022-10-03T17:04:22.917Z,56.290422258326785
2022-10-03T17:07:21.004Z,57.1265533897741
2022-10-03T17:11:19.669Z,58.138978767335935
2022-10-03T17:14:18.934Z,59.13186338286132
2022-10-03T17:17:27.454Z,59.663114372904936
2022-10-03T17:21:25.172Z,60.50541267158808
2022-10-03T17:24:27.039Z,61.245356453312446
2022-10-03T17:27:24.100Z,61.532173970370344
2022-10-03T17:31:27.411Z,63.21048779214773
2022-10-03T17:34:22.681Z,64.31019339886531
2022-10-03T17:37:47.571Z,63.910674076550144
2022-10-03T17:41:23.025Z,64.26301935007919
2022-10-03T17:44:33.734Z,63.903274790489135
2022-10-03T17:47:22.430Z,63.43748031975503
2022-10-03T17:51:30.490Z,63.117808363155504
2022-10-03T17:54:19.845Z,63.89623166747519
2022-10-03T17:57:22.586Z,63.87443388473394
2022-10-03T18:01:22.516Z,64.15895990242574
2022-10-03T18:04:19.354Z,64.60275058595714
2022-10-03T18:07:19.881Z,65.24108515332331
2022-10-03T18:11:23.171Z,65.59280288105795
2022-10-03T18:14:31.614Z,66.31492223233452
2022-10-03T18:17:23.942Z,66.87182807772443
2022-10-03T18:21:29.826Z,66.96795967300072
2022-10-03T18:25:30.000Z,67.48477362839813
2022-10-03T18:28:11.769Z,67.55653904986049
2022-10-03T18:31:18.353Z,68.84714947655085
2022-10-03T18:34:20.908Z,68.8816425970909
2022-10-03T18:38:03.001Z,69.82571693280865
2022-10-03T18:41:17.268Z,70.55683515811073
2022-10-03T18:44:18.801Z,71.22676248508199
2022-10-03T18:47:22.958Z,71.45095208179681
2022-10-03T18:51:25.704Z,71.60619182950154
2022-10-03T18:54:29.156Z,71.81417812335633
2022-10-03T18:57:22.581Z,72.26634133350923
2022-10-03T19:01:21.409Z,72.41872271202494
2022-10-03T19:04:32.605Z,72.70506819692875
2022-10-03T19:07:54.635Z,72.66195558230451
2022-10-03T19:11:29.624Z,72.6316019868108
2022-10-03T19:14:32.061Z,72.85106341134538
2022-10-03T19:17:34.223Z,73.14496070968099
2022-10-03T19:21:20.232Z,72.97187157835667
2022-10-03T19:24:34.521Z,73.26534799011823
2022-10-03T19:27:21.082Z,73.88224578003648
2022-10-03T19:31:26.679Z,74.55876625222228
2022-10-03T19:34:22.880Z,74.77198775446656
2022-10-03T19:37:23.968Z,74.95581248303294
2022-10-03T19:41:26.856Z,75.27312612917709
2022-10-03T19:44:20.435Z,75.16077902292174
2022-10-03T19:47:20.700Z,75.36672435161394
2022-10-03T19:51:22.763Z,75.95271532960128
2022-10-03T19:54:30.854Z,76.56215342851355
2022-10-03T19:57:20.864Z,76.86193420109781
2022-10-03T20:01:16.917Z,77.56945974018959
2022-10-03T20:04:31.451Z,78.47537158238316
2022-10-03T20:07:27.405Z,78.51244890858719
2022-10-03T20:11:26.569Z,78.75087532967191
2022-10-03T20:14:20.405Z,78.91405956386122
2022-10-03T20:17:20.854Z,79.09300743362799
2022-10-03T20:21:19.229Z,79.75972735700155
2022-10-03T20:24:25.585Z,79.40518444232606
2022-10-03T20:27:30.793Z,80.19078164843584
2022-10-03T20:31:22.663Z,80.59948092093377
2022-10-03T20:34:23.287Z,80.32090712206815
2022-10-03T20:37:30.722Z,80.65617682253611
2022-10-03T20:41:26.945Z,80.80963731839523
2022-10-03T20:44:30.580Z,81.69483804727224
2022-10-03T20:47:36.613Z,81.67217941371078
2022-10-03T20:51:22.288Z,82.00776239757994
2022-10-03T20:54:20.268Z,82.40405489744266
2022-10-03T20:57:21.428Z,82.62780237535303
2022-10-03T21:01:22.098Z,82.94526700712119
2022-10-03T21:04:24.248Z,82.7928916551047
2022-10-03T21:07:27.095Z,83.00604366534829
2022-10-03T21:11:22.044Z,83.53738223622199
2022-10-03T21:14:23.646Z,84.03479874428692
2022-10-03T21:17:19.108Z,84.65921006745607
2022-10-03T21:21:22.242Z,84.35362598361341
2022-10-03T21:24:21.817Z,84.67108278863176
2022-10-03T21:27:19.842Z,84.79378223675374
2022-10-03T21:31:28.142Z,85.6557956880783
2022-10-03T21:34:24.874Z,86.1645797211563
2022-10-03T21:37:25.328Z,86.55335486833174
2022-10-03T21:41:24.832Z,86.82134106096247
2022-10-03T21:44:46.814Z,87.57284929605443
2022-10-03T21:47:28.277Z,88.38071921533427
2022-10-03T21:51:25.891Z,88.20418238327348
2022-10-03T21:54:32.130Z,88.18662704089333
2022-10-03T21:57:28.206Z,88.04419415343675
2022-10-03T22:01:25.944Z,88.5765624128619
2022-10-03T22:04:25.895Z,88.98515439440854
2022-10-03T22:07:26.505Z,89.28669100983382
2022-10-03T22:11:29.129Z,90.07364033973768
2022-10-03T22:14:28.842Z,89.88457200558672
2022-10-03T22:17:24.776Z,89.54452902771926
2022-10-03T22:21:25.973Z,89.54656129165271
2022-10-03T22:24:26.950Z,89.80595932050402
2022-10-03T22:27:21.585Z,90.48502039865332
2022-10-03T22:31:27.025Z,90.93672498090379
2022-10-03T22:34:32.281Z,91.02774961096189
2022-10-03T22:37:17.992Z,91.09846356995888
2022-10-03T22:41:22.684Z,91.85676005415071
2022-10-03T22:44:19.393Z,92.05134114989993
2022-10-03T22:47:22.203Z,91.90762402618749
2022-10-03T22:51:20.384Z,91.55919731406311
2022-10-03T22:54:18.069Z,92.54968311235785
2022-10-03T22:57:17.998Z,91.97645958872678
2022-10-03T23:01:16.654Z,91.74400503305566
2022-10-03T23:04:24.633Z,91.89794059002291
2022-10-03T23:07:38.457Z,91.6954552859945
2022-10-03T23:11:20.958Z,91.70770122579893
2022-10-03T23:14:22.708Z,91.50560426374541
2022-10-03T23:17:36.078Z,91.66007867577916
2022-10-03T23:21:17.220Z,91.77930902674451
2022-10-03T23:24:24.725Z,92.19964402495751
2022-10-03T23:31:50.457Z,92.19157868477949
2022-10-03T23:34:45.702Z,92.55651817530268
2022-10-03T23:37:49.718Z,92.16192692658784
2022-10-03T23:41:29.301Z,92.16520162205958
2022-10-03T23:44:52.195Z,92.46141242369457
2022-10-03T23:47:20.027Z,92.21830252197958
2022-10-03T23:51:19.554Z,92.35808998012284
2022-10-03T23:54:18.886Z,92.85811426937845
2022-10-03T23:57:18.660Z,92.48125669937794
